Time;durP1;ratioP1;P1;durP2;ratioP2;P2;SDS_P1;SDS_P2;PMS_P1;PMS_P2;Temp;Humidity;BMP_temperature;BMP_pressure;BME280_temperature;BME280_humidity;BME280_pressure;Samples;Min_cycle;Max_cycle;Signal;HPM_P1;HPM_P2
2021/10/16 00:00:18;;;;;;;4.25;2.20;;;;;;;1.15;86.97;90970.38;5012875;28;20437;-87
2021/10/16 00:02:43;;;;;;;4.70;2.85;;;;;;;1.28;85.49;90968.22;5044570;28;20022;-86
2021/10/16 00:05:08;;;;;;;4.78;2.72;;;;;;;1.22;86.16;90975.19;5027734;28;20053;-86
2021/10/16 00:07:34;;;;;;;4.35;2.45;;;;;;;1.30;86.59;90972.03;5011720;28;20040;-86
2021/10/16 00:10:00;;;;;;;4.13;2.47;;;;;;;1.11;87.05;90968.63;5019401;28;20024;-87
2021/10/16 00:12:25;;;;;;;4.55;2.30;;;;;;;1.06;86.91;90972.00;4998568;28;20068;-89
2021/10/16 00:14:51;;;;;;;4.82;2.45;;;;;;;1.11;87.54;90973.75;5015397;28;20046;-87
2021/10/16 00:17:16;;;;;;;4.43;2.40;;;;;;;1.09;87.99;90973.25;4999201;28;20026;-87
2021/10/16 00:19:42;;;;;;;4.53;2.60;;;;;;;1.06;88.57;90971.22;5021945;28;20026;-86
2021/10/16 00:22:07;;;;;;;3.00;2.22;;;;;;;1.07;89.08;90976.09;5003866;28;20449;-87
2021/10/16 00:24:33;;;;;;;3.25;2.20;;;;;;;1.00;88.00;90964.59;4997254;28;20193;-85
2021/10/16 00:26:59;;;;;;;2.97;2.03;;;;;;;0.95;88.05;90966.19;5012386;28;20042;-88
2021/10/16 00:29:24;;;;;;;4.45;2.30;;;;;;;1.12;87.34;90977.84;5028128;28;20439;-88
2021/10/16 00:31:50;;;;;;;4.18;2.22;;;;;;;0.97;85.83;90977.97;5031795;28;20084;-87
2021/10/16 00:34:15;;;;;;;4.90;2.50;;;;;;;1.03;85.60;90974.34;5037817;28;20025;-93
2021/10/16 00:36:41;;;;;;;3.08;2.33;;;;;;;0.84;85.67;90964.69;5013981;28;20076;-89
2021/10/16 00:39:06;;;;;;;3.70;1.70;;;;;;;1.01;85.21;90976.41;5032962;28;20025;-87
2021/10/16 00:41:32;;;;;;;2.97;1.80;;;;;;;0.89;85.54;90977.50;4999945;28;20080;-87
2021/10/16 00:44:17;;;;;;;4.60;2.00;;;;;;;1.06;85.07;90976.34;4999230;28;20335;-88
2021/10/16 00:46:42;;;;;;;;;;;;;;;0.91;85.65;90975.41;5017606;28;20106;-86
2021/10/16 00:49:08;;;;;;;3.15;1.80;;;;;;;0.74;85.96;90971.69;5015570;28;20350;-87
2021/10/16 00:51:33;;;;;;;3.30;1.60;;;;;;;0.60;86.06;90969.75;4998986;28;20399;-89
2021/10/16 00:53:59;;;;;;;2.97;1.67;;;;;;;0.60;86.62;90981.78;5048782;28;20033;-88
2021/10/16 00:56:25;;;;;;;3.47;1.70;;;;;;;0.56;87.02;90970.53;5048471;28;20052;-88
2021/10/16 00:58:50;;;;;;;3.35;1.83;;;;;;;0.67;86.25;90970.22;5049108;28;20028;-88
2021/10/16 01:01:16;;;;;;;2.78;1.80;;;;;;;0.75;86.53;90975.81;5088801;22;20069;-88
2021/10/16 01:03:41;;;;;;;8.80;2.50;;;;;;;0.72;86.58;90969.41;4978141;28;20052;-87
2021/10/16 01:06:07;;;;;;;2.65;1.77;;;;;;;0.60;85.92;90969.75;4968281;28;20031;-89
2021/10/16 01:08:32;;;;;;;2.88;2.00;;;;;;;0.60;85.51;90964.63;4943596;28;20027;-89
2021/10/16 01:10:58;;;;;;;4.32;2.35;;;;;;;0.76;85.63;90964.50;4959574;28;20034;-88
2021/10/16 01:13:26;;;;;;;4.10;2.28;;;;;;;0.56;85.97;90963.59;4944187;28;20041;-89
2021/10/16 01:15:52;;;;;;;4.38;2.25;;;;;;;0.43;86.30;90964.97;4960107;28;20034;-89
2021/10/16 01:18:19;;;;;;;5.50;1.90;;;;;;;0.48;86.43;90971.84;4943829;28;20035;-88
2021/10/16 01:20:45;;;;;;;3.13;1.92;;;;;;;0.61;86.83;90960.25;4959543;28;20081;-88
2021/10/16 01:23:10;;;;;;;2.75;1.73;;;;;;;0.49;87.59;90965.69;4943347;28;20031;-89
2021/10/16 01:25:36;;;;;;;3.67;2.10;;;;;;;0.43;87.69;90959.06;4943276;28;20058;-89
2021/10/16 01:28:01;;;;;;;4.22;2.05;;;;;;;0.50;87.54;90963.91;4960283;28;20437;-88
2021/10/16 01:30:26;;;;;;;3.67;2.00;;;;;;;0.52;89.08;90959.25;4977874;28;20034;-89
2021/10/16 01:32:52;;;;;;;3.65;1.83;;;;;;;0.53;88.88;90953.88;4962075;28;20089;-89
2021/10/16 01:35:18;;;;;;;3.25;1.90;;;;;;;0.43;87.40;90957.28;4963164;28;20081;-89
2021/10/16 01:37:46;;;;;;;4.82;2.00;;;;;;;0.58;87.68;90953.09;4962555;28;20037;-89
2021/10/16 01:40:11;;;;;;;3.38;2.03;;;;;;;0.58;87.55;90955.66;4995181;28;20109;-89
2021/10/16 01:42:42;;;;;;;5.38;1.80;;;;;;;0.67;86.12;90952.25;4978488;28;20614;-89
2021/10/16 01:45:09;;;;;;;6.00;1.88;;;;;;;0.66;85.34;90943.00;4963694;28;20029;-89
2021/10/16 01:47:45;;;;;;;5.03;1.92;;;;;;;0.47;85.99;90945.44;4962582;28;20058;-89
2021/10/16 01:50:10;;;;;;;3.53;2.03;;;;;;;0.44;86.87;90952.91;4994739;28;20038;-89
2021/10/16 01:52:35;;;;;;;3.67;2.00;;;;;;;0.32;86.92;90942.97;4994690;28;20475;-89
2021/10/16 01:55:01;;;;;;;3.22;1.85;;;;;;;0.29;86.89;90948.63;4962347;28;20510;-89
2021/10/16 01:57:26;;;;;;;4.82;2.17;;;;;;;0.48;88.36;90949.53;4978274;28;20467;-89
2021/10/16 01:59:52;;;;;;;3.90;1.85;;;;;;;0.45;88.00;90946.72;4978804;28;20467;-89
2021/10/16 02:02:17;;;;;;;5.32;1.98;;;;;;;0.37;87.05;90945.50;4962524;28;20034;-88
2021/10/16 02:04:42;;;;;;;3.40;1.80;;;;;;;0.33;86.39;90946.31;4978422;28;20037;-88
2021/10/16 02:07:08;;;;;;;2.58;1.83;;;;;;;0.54;85.60;90944.38;4978639;28;20026;-89
2021/10/16 02:09:33;;;;;;;3.40;2.03;;;;;;;0.41;87.13;90951.63;4962372;28;20034;-89
2021/10/16 02:11:59;;;;;;;4.25;1.98;;;;;;;0.33;88.52;90947.06;4962630;28;20028;-89
2021/10/16 02:14:24;;;;;;;4.20;2.05;;;;;;;0.39;88.83;90948.56;4978526;28;20030;-89
2021/10/16 02:16:50;;;;;;;3.58;2.05;;;;;;;0.41;89.26;90950.88;4978331;28;20178;-89
2021/10/16 02:19:15;;;;;;;5.32;2.10;;;;;;;0.34;87.78;90951.16;4961895;28;20448;-88
2021/10/16 02:21:40;;;;;;;3.03;2.10;;;;;;;0.38;87.39;90952.16;4993967;28;20045;-89
2021/10/16 02:24:06;;;;;;;2.92;1.88;;;;;;;0.39;85.97;90951.16;4978221;28;20499;-89
2021/10/16 02:26:31;;;;;;;3.35;1.90;;;;;;;0.19;85.46;90946.13;4993150;28;20467;-89
2021/10/16 02:28:57;;;;;;;3.45;1.92;;;;;;;0.11;86.83;90946.66;4961791;28;20034;-89
2021/10/16 02:31:22;;;;;;;5.45;2.20;;;;;;;0.03;87.78;90942.84;4977532;28;20034;-88
2021/10/16 02:33:49;;;;;;;2.55;1.70;;;;;;;0.08;86.60;90952.31;4961154;28;20037;-89
2021/10/16 02:36:14;;;;;;;4.85;2.10;;;;;;;0.01;85.86;90949.28;4978308;28;20046;-89
2021/10/16 02:38:40;;;;;;;4.75;2.10;;;;;;;0.15;85.83;90950.25;4977667;28;20038;-89
2021/10/16 02:41:05;;;;;;;3.47;2.08;;;;;;;0.06;86.54;90951.81;4977025;28;20479;-88
2021/10/16 02:43:31;;;;;;;3.83;2.22;;;;;;;-0.03;86.74;90946.47;4961075;28;20452;-89
2021/10/16 02:45:56;;;;;;;6.50;2.50;;;;;;;0.12;86.31;90946.41;4960842;28;20045;-89
2021/10/16 02:48:21;;;;;;;5.75;3.10;;;;;;;0.05;87.29;90948.47;4976785;28;20030;-89
2021/10/16 02:50:47;;;;;;;6.60;2.83;;;;;;;0.03;86.42;90944.63;4977048;28;20026;-89
2021/10/16 02:53:12;;;;;;;8.60;3.13;;;;;;;-0.03;86.30;90952.34;4993451;28;20029;-89
2021/10/16 02:55:38;;;;;;;4.57;2.42;;;;;;;-0.01;86.03;90945.16;4961757;28;20038;-89
2021/10/16 02:58:03;;;;;;;5.90;2.90;;;;;;;-0.08;86.33;90943.91;4977696;28;20435;-89
2021/10/16 03:00:29;;;;;;;5.47;2.33;;;;;;;0.01;85.66;90941.59;4977711;28;20471;-89
2021/10/16 03:02:54;;;;;;;6.28;2.53;;;;;;;0.13;85.71;90945.34;4962323;28;20545;-89
2021/10/16 03:05:20;;;;;;;4.45;2.25;;;;;;;0.04;85.84;90948.75;4981775;28;20237;-91
2021/10/16 03:07:45;;;;;;;5.28;2.63;;;;;;;-0.01;86.21;90939.28;5018265;28;20014;-93
2021/10/16 03:10:10;;;;;;;5.43;2.80;;;;;;;-0.08;87.69;90949.81;5002646;28;20025;-92
2021/10/16 03:12:36;;;;;;;8.75;3.50;;;;;;;-0.20;87.63;90946.78;4985159;28;20030;-89
2021/10/16 03:15:01;;;;;;;8.73;3.97;;;;;;;-0.26;87.44;90942.69;4978598;28;20062;-89
2021/10/16 03:17:27;;;;;;;6.93;3.40;;;;;;;-0.11;86.38;90944.44;4994514;28;20491;-89
2021/10/16 03:19:52;;;;;;;14.63;2.75;;;;;;;-0.20;86.69;90953.72;4978271;28;20026;-89
2021/10/16 03:22:18;;;;;;;8.27;3.53;;;;;;;-0.22;87.88;90961.63;4977532;28;20081;-88
2021/10/16 03:24:43;;;;;;;7.97;3.30;;;;;;;-0.23;87.46;90947.31;4977883;28;20485;-89
2021/10/16 03:27:09;;;;;;;7.63;2.55;;;;;;;-0.02;86.48;90953.88;4961855;28;20018;-89
2021/10/16 03:29:34;;;;;;;4.20;2.53;;;;;;;0.05;85.97;90947.72;4976819;28;20026;-89
2021/10/16 03:32:00;;;;;;;6.00;2.55;;;;;;;-0.13;86.40;90956.75;4976471;28;20037;-90
2021/10/16 03:34:29;;;;;;;3.83;2.22;;;;;;;-0.14;85.60;90956.00;4960868;28;20038;-89
2021/10/16 03:36:55;;;;;;;6.97;2.45;;;;;;;-0.13;85.64;90957.53;4961460;28;20026;-89
2021/10/16 03:39:20;;;;;;;9.23;3.58;;;;;;;-0.07;85.91;90946.22;4992601;28;20023;-88
2021/10/16 03:41:46;;;;;;;4.72;2.60;;;;;;;-0.22;86.61;90948.81;4976709;28;20471;-89
2021/10/16 03:44:11;;;;;;;5.60;2.90;;;;;;;-0.22;86.75;90953.19;4994294;28;20019;-89
2021/10/16 03:46:37;;;;;;;5.15;3.13;;;;;;;-0.25;86.66;90954.47;4980916;28;20057;-89
2021/10/16 03:49:02;;;;;;;7.10;2.50;;;;;;;-0.23;86.28;90955.00;4981142;28;20026;-88
2021/10/16 03:51:28;;;;;;;4.55;2.47;;;;;;;-0.26;86.00;90953.72;4980798;28;20027;-89
2021/10/16 03:53:53;;;;;;;3.53;2.30;;;;;;;-0.23;87.09;90942.19;4981115;28;20510;-88
2021/10/16 03:56:19;;;;;;;4.40;2.22;;;;;;;-0.29;86.97;90945.78;4992316;28;20411;-88
2021/10/16 03:58:44;;;;;;;7.03;2.72;;;;;;;-0.40;87.39;90947.59;4991397;28;20088;-89
2021/10/16 04:01:09;;;;;;;7.43;2.47;;;;;;;-0.45;87.80;90946.88;4980845;28;20030;-88
2021/10/16 04:03:35;;;;;;;6.53;2.65;;;;;;;-0.55;87.73;90940.72;4964587;28;20023;-89
2021/10/16 04:06:01;;;;;;;8.43;2.67;;;;;;;-0.57;88.08;90937.66;4964077;28;20445;-88
2021/10/16 04:08:27;;;;;;;4.20;2.55;;;;;;;-0.55;88.17;90932.28;4980055;28;20534;-89
2021/10/16 04:10:52;;;;;;;3.72;2.38;;;;;;;-0.53;87.94;90932.78;4963861;28;20398;-89
2021/10/16 04:13:18;;;;;;;5.43;2.65;;;;;;;-0.37;88.40;90941.19;4980232;28;20026;-89
2021/10/16 04:15:43;;;;;;;6.22;2.92;;;;;;;-0.30;87.92;90944.25;4963914;28;20049;-89
2021/10/16 04:18:08;;;;;;;13.20;3.63;;;;;;;-0.29;87.71;90940.66;4996310;28;20049;-89
2021/10/16 04:20:34;;;;;;;7.40;3.60;;;;;;;-0.23;89.50;90946.53;4980909;28;20368;-89
2021/10/16 04:22:59;;;;;;;11.50;4.65;;;;;;;-0.20;90.15;90944.22;4980848;28;20026;-89
2021/10/16 04:25:25;;;;;;;7.15;3.88;;;;;;;-0.15;88.87;90939.06;4997312;28;20072;-88
2021/10/16 04:27:50;;;;;;;7.85;4.07;;;;;;;-0.16;88.17;90941.91;4996656;28;20030;-89
2021/10/16 04:30:16;;;;;;;10.20;4.18;;;;;;;-0.16;89.34;90949.59;4980976;28;20026;-89
2021/10/16 04:32:41;;;;;;;6.50;3.72;;;;;;;-0.15;89.80;90943.44;4980716;28;20027;-89
2021/10/16 04:35:08;;;;;;;5.45;3.45;;;;;;;-0.23;89.18;90939.63;4980471;28;20027;-88
2021/10/16 04:37:34;;;;;;;7.43;3.50;;;;;;;-0.25;88.84;90944.22;4981076;28;20031;-89
2021/10/16 04:40:07;;;;;;;8.77;3.60;;;;;;;-0.12;87.90;90937.78;4996634;28;20083;-89
2021/10/16 04:42:33;;;;;;;10.15;3.47;;;;;;;-0.13;88.23;90937.03;4981532;28;20027;-89
2021/10/16 04:44:58;;;;;;;7.07;3.47;;;;;;;-0.27;89.99;90939.38;4980860;28;20029;-89
2021/10/16 04:47:23;;;;;;;7.80;3.63;;;;;;;-0.28;89.26;90942.22;4994485;28;20031;-88
2021/10/16 04:49:49;;;;;;;6.65;4.03;;;;;;;-0.24;88.64;90940.66;4979371;28;20051;-89
2021/10/16 04:52:14;;;;;;;6.93;3.63;;;;;;;-0.22;88.58;90938.59;4963431;28;20029;-89
2021/10/16 04:54:40;;;;;;;6.63;3.55;;;;;;;-0.06;89.70;90939.31;4962817;28;20037;-88
2021/10/16 04:57:05;;;;;;;10.20;4.15;;;;;;;-0.04;90.58;90940.56;4995777;28;20019;-89
2021/10/16 04:59:31;;;;;;;6.53;3.65;;;;;;;-0.09;89.81;90944.94;4963188;28;20045;-89
2021/10/16 05:01:56;;;;;;;6.88;3.38;;;;;;;-0.13;89.67;90931.91;4979096;28;20030;-89
2021/10/16 05:04:22;;;;;;;6.03;3.78;;;;;;;-0.09;90.13;90930.34;4963588;28;20026;-89
2021/10/16 05:06:47;;;;;;;5.32;3.17;;;;;;;-0.18;90.33;90939.59;4963729;28;20026;-89
2021/10/16 05:09:13;;;;;;;7.32;3.50;;;;;;;-0.19;90.10;90935.50;4979905;28;20022;-89
2021/10/16 05:11:38;;;;;;;6.65;3.42;;;;;;;-0.23;88.63;90937.06;4979532;28;20022;-89
2021/10/16 05:14:03;;;;;;;4.82;2.90;;;;;;;0.03;87.76;90936.94;4979168;28;20034;-89
2021/10/16 05:16:30;;;;;;;5.45;3.03;;;;;;;-0.21;88.37;90934.22;4979212;28;20026;-88
2021/10/16 05:18:56;;;;;;;5.75;3.15;;;;;;;-0.27;87.39;90948.84;4978229;28;20026;-89
2021/10/16 05:21:21;;;;;;;7.57;3.60;;;;;;;-0.27;87.88;90941.16;4963156;28;20034;-89
2021/10/16 05:23:46;;;;;;;5.20;3.10;;;;;;;-0.11;87.57;90944.44;4959985;28;20391;-89
2021/10/16 05:26:12;;;;;;;4.57;2.50;;;;;;;-0.21;87.71;90942.69;4976265;28;20403;-89
2021/10/16 05:28:37;;;;;;;5.57;3.38;;;;;;;-0.27;87.85;90938.63;4976352;28;20018;-89
2021/10/16 05:31:03;;;;;;;6.05;3.22;;;;;;;-0.38;87.56;90935.31;4992244;28;20026;-88
2021/10/16 05:33:28;;;;;;;4.30;2.42;;;;;;;-0.32;87.42;90947.09;4976162;28;20019;-89
2021/10/16 05:35:54;;;;;;;6.05;2.42;;;;;;;-0.22;86.57;90948.81;4976485;28;20766;-89
2021/10/16 05:38:19;;;;;;;4.20;2.15;;;;;;;-0.35;86.37;90951.97;4960394;28;20395;-88
2021/10/16 05:40:44;;;;;;;5.63;2.50;;;;;;;-0.29;85.94;90943.22;4943759;28;20050;-89
2021/10/16 05:43:10;;;;;;;7.50;3.30;;;;;;;-0.26;86.41;90943.47;4974317;28;20487;-89
2021/10/16 05:45:35;;;;;;;5.95;2.75;;;;;;;-0.32;86.80;90944.53;4963273;28;20022;-89
2021/10/16 05:48:01;;;;;;;6.45;2.72;;;;;;;-0.34;88.19;90950.94;4979840;28;20545;-89
2021/10/16 05:50:26;;;;;;;10.07;3.05;;;;;;;-0.49;88.49;90949.94;4963448;28;20030;-88
2021/10/16 05:52:52;;;;;;;8.20;3.17;;;;;;;-0.45;88.69;90944.31;4979284;28;20467;-89
2021/10/16 05:55:17;;;;;;;6.32;2.83;;;;;;;-0.34;88.44;90950.94;4963249;28;20031;-89
2021/10/16 05:57:43;;;;;;;5.15;3.00;;;;;;;-0.49;88.10;90952.50;4964687;28;20026;-89
2021/10/16 06:00:09;;;;;;;4.88;2.78;;;;;;;-0.52;88.67;90959.94;4980941;28;20022;-89
2021/10/16 06:02:34;;;;;;;6.22;2.25;;;;;;;-0.43;88.86;90949.91;4964514;28;20034;-89
2021/10/16 06:05:00;;;;;;;8.15;2.60;;;;;;;-0.41;88.28;90965.81;4966400;28;20372;-89
2021/10/16 06:07:25;;;;;;;6.10;2.85;;;;;;;-0.27;88.29;90965.00;4969835;28;20085;-88
2021/10/16 06:09:50;;;;;;;6.80;3.45;;;;;;;-0.27;87.92;90967.56;4978872;28;20046;-88
2021/10/16 06:12:16;;;;;;;5.22;2.67;;;;;;;-0.38;88.25;90965.28;4987885;28;20015;-89
2021/10/16 06:14:42;;;;;;;6.45;2.72;;;;;;;-0.40;88.60;90959.66;4973496;28;20031;-89
2021/10/16 06:17:07;;;;;;;5.18;3.03;;;;;;;-0.39;88.82;90967.09;4985175;28;20022;-89
2021/10/16 06:19:33;;;;;;;6.30;3.15;;;;;;;-0.36;88.19;90961.41;4977416;28;20023;-88
2021/10/16 06:21:58;;;;;;;9.63;3.30;;;;;;;-0.37;88.10;90964.25;4959136;28;20055;-89
2021/10/16 06:24:24;;;;;;;7.32;3.35;;;;;;;-0.37;88.29;90977.06;4975754;28;20022;-89
2021/10/16 06:26:49;;;;;;;9.38;4.40;;;;;;;-0.33;89.28;90967.81;4974950;28;20522;-89
2021/10/16 06:29:14;;;;;;;9.68;4.60;;;;;;;-0.23;88.89;90972.16;4974964;28;20051;-89
2021/10/16 06:31:40;;;;;;;6.07;3.28;;;;;;;0.11;88.53;90972.31;4976008;28;20068;-89
2021/10/16 06:34:07;;;;;;;5.82;2.95;;;;;;;-0.02;87.56;90974.38;4974726;28;20022;-89
2021/10/16 06:36:32;;;;;;;4.05;2.28;;;;;;;0.11;87.81;90972.31;4975887;28;20019;-89
2021/10/16 06:38:58;;;;;;;5.22;3.03;;;;;;;0.28;87.20;90977.06;4988870;28;20037;-89
2021/10/16 06:41:23;;;;;;;6.35;3.65;;;;;;;0.23;87.54;90970.19;4962855;28;20033;-89
2021/10/16 06:43:49;;;;;;;8.60;5.93;;;;;;;0.43;86.42;90979.59;4977427;28;20498;-89
2021/10/16 06:46:14;;;;;;;8.98;5.85;;;;;;;0.38;86.09;90988.03;4977729;28;20080;-89
2021/10/16 06:48:40;;;;;;;6.03;4.07;;;;;;;0.23;86.60;90975.31;4961928;28;20034;-89
2021/10/16 06:51:05;;;;;;;7.65;4.03;;;;;;;0.24;87.05;90974.28;4963807;28;20030;-89
2021/10/16 06:53:32;;;;;;;8.50;4.28;;;;;;;0.30;87.45;90991.16;4962463;28;20049;-89
2021/10/16 06:55:57;;;;;;;5.25;2.83;;;;;;;0.20;87.47;90986.84;4977910;28;20030;-89
2021/10/16 06:58:23;;;;;;;4.95;2.63;;;;;;;0.18;88.81;90998.41;4961784;28;20030;-89
2021/10/16 07:00:48;;;;;;;7.30;3.55;;;;;;;0.20;89.64;90980.97;4963032;28;20030;-88
2021/10/16 07:03:14;;;;;;;5.82;3.22;;;;;;;0.35;90.10;90992.94;5073174;23;20501;-87
2021/10/16 07:05:40;;;;;;;9.82;5.22;;;;;;;0.53;90.29;90984.66;5015219;28;20029;-87
2021/10/16 07:08:06;;;;;;;10.38;6.13;;;;;;;0.63;90.39;90988.94;4999113;28;20029;-89
2021/10/16 07:10:31;;;;;;;10.32;6.03;;;;;;;0.70;89.82;90989.41;4999065;28;20489;-88
2021/10/16 07:13:00;;;;;;;9.50;4.90;;;;;;;0.79;89.36;90982.69;5046532;28;20033;-88
2021/10/16 07:15:26;;;;;;;9.20;5.65;;;;;;;0.88;89.92;90983.69;5052998;28;20859;-89
2021/10/16 07:17:51;;;;;;;9.60;5.07;;;;;;;0.97;89.33;90985.66;5026953;28;20029;-88
2021/10/16 07:20:17;;;;;;;10.10;5.22;;;;;;;1.06;89.43;90994.31;5031965;28;20022;-88
2021/10/16 07:22:42;;;;;;;8.93;4.40;;;;;;;1.17;89.40;90991.41;5031786;28;20036;-88
2021/10/16 07:25:08;;;;;;;10.88;5.40;;;;;;;1.26;90.19;91004.44;4999165;28;20033;-88
2021/10/16 07:27:33;;;;;;;7.00;4.70;;;;;;;1.32;90.23;91002.59;5031576;28;20025;-88
2021/10/16 07:29:59;;;;;;;13.45;5.95;;;;;;;1.39;90.10;90996.13;5015198;28;20104;-89
2021/10/16 07:32:24;;;;;;;11.35;5.55;;;;;;;1.67;91.54;91002.28;5014920;28;20466;-88
2021/10/16 07:34:50;;;;;;;14.05;6.72;;;;;;;1.97;92.72;90999.69;5026956;28;20474;-86
2021/10/16 07:37:15;;;;;;;13.20;8.05;;;;;;;2.22;92.90;91003.78;5031575;28;20429;-88
2021/10/16 07:39:40;;;;;;;13.07;7.70;;;;;;;2.39;92.55;90997.16;5034124;28;20025;-88
2021/10/16 07:42:06;;;;;;;10.15;6.47;;;;;;;2.55;91.21;91002.13;5071874;28;20020;-89
2021/10/16 07:44:31;;;;;;;14.75;6.97;;;;;;;2.69;90.60;91005.53;5035207;28;20021;-87
2021/10/16 07:46:57;;;;;;;11.55;5.10;;;;;;;2.69;89.11;91005.53;5036376;28;20036;-88
2021/10/16 07:49:22;;;;;;;8.93;5.40;;;;;;;2.67;88.53;91001.72;5015647;28;20482;-87
2021/10/16 07:51:47;;;;;;;8.18;4.95;;;;;;;2.80;89.09;91001.78;5032362;28;20527;-88
2021/10/16 07:54:13;;;;;;;10.88;5.32;;;;;;;2.98;90.25;91014.94;5032967;28;20457;-87
2021/10/16 07:56:38;;;;;;;8.73;5.03;;;;;;;3.04;89.62;91001.72;5033460;28;20516;-87
2021/10/16 07:59:04;;;;;;;7.75;5.03;;;;;;;3.21;89.97;91008.91;5017493;28;20022;-90
2021/10/16 08:01:29;;;;;;;10.80;5.60;;;;;;;3.37;89.97;91008.72;5061153;28;20026;-88
2021/10/16 08:03:55;;;;;;;10.45;5.57;;;;;;;3.44;89.99;91009.88;5014666;28;20394;-88
2021/10/16 08:06:20;;;;;;;9.55;5.97;;;;;;;3.57;90.09;91008.41;4997792;28;20025;-89
2021/10/16 08:08:46;;;;;;;11.05;5.85;;;;;;;3.67;89.94;90997.13;5014220;28;20044;-88
2021/10/16 08:11:11;;;;;;;8.30;5.32;;;;;;;3.77;90.03;91008.03;4997451;28;20052;-87
2021/10/16 08:13:36;;;;;;;7.78;5.50;;;;;;;3.95;90.51;91013.41;5031031;28;20055;-88
2021/10/16 08:16:02;;;;;;;9.60;6.18;;;;;;;4.08;90.83;91003.13;5015109;28;20075;-88
2021/10/16 08:18:27;;;;;;;13.10;7.30;;;;;;;4.23;91.07;91003.88;5050380;28;20029;-88
2021/10/16 08:20:53;;;;;;;13.38;7.00;;;;;;;4.37;90.87;91003.91;5017684;28;20029;-89
2021/10/16 08:23:18;;;;;;;12.15;6.05;;;;;;;4.53;91.46;91002.56;5015221;28;20025;-88
2021/10/16 08:25:44;;;;;;;11.00;6.32;;;;;;;4.66;91.61;90995.81;5031537;28;20436;-90
2021/10/16 08:28:10;;;;;;;10.52;6.20;;;;;;;4.87;91.20;91006.50;5015631;28;20025;-88
2021/10/16 08:30:36;;;;;;;15.15;6.20;;;;;;;4.98;92.09;91006.03;5017578;28;20056;-88
2021/10/16 08:33:02;;;;;;;9.43;6.10;;;;;;;5.12;90.79;90998.19;5001842;28;20021;-89
2021/10/16 08:35:27;;;;;;;12.98;7.05;;;;;;;5.34;89.65;91001.88;5038335;28;20048;-88
2021/10/16 08:37:53;;;;;;;10.50;6.55;;;;;;;5.50;89.66;91003.06;5039820;28;20484;-87
2021/10/16 08:40:18;;;;;;;13.73;6.70;;;;;;;5.78;89.28;91008.09;5055406;28;20028;-88
2021/10/16 08:42:43;;;;;;;11.68;7.13;;;;;;;5.82;88.62;91009.03;5021971;28;20473;-88
2021/10/16 08:45:09;;;;;;;12.63;6.80;;;;;;;5.92;86.65;91008.78;5055369;28;20025;-88
2021/10/16 08:47:36;;;;;;;12.75;6.47;;;;;;;5.98;86.87;91012.81;5037526;28;20028;-89
2021/10/16 08:50:02;;;;;;;11.13;6.00;;;;;;;6.08;88.42;91007.38;5020849;28;20467;-88
2021/10/16 08:52:27;;;;;;;11.32;6.20;;;;;;;6.21;88.94;91016.09;5054045;28;20074;-89
2021/10/16 08:54:53;;;;;;;11.88;6.68;;;;;;;6.35;89.57;91013.41;5037516;28;20492;-88
2021/10/16 08:57:20;;;;;;;10.63;6.25;;;;;;;6.24;87.67;91007.72;5020919;28;20040;-89
2021/10/16 08:59:45;;;;;;;10.45;6.13;;;;;;;6.31;85.77;91010.66;5053742;28;20149;-88
2021/10/16 09:02:11;;;;;;;11.75;6.20;;;;;;;6.49;86.97;91010.72;5053712;28;20033;-89
2021/10/16 09:04:36;;;;;;;10.10;6.03;;;;;;;6.46;86.48;91012.06;5055099;28;20028;-88
2021/10/16 09:07:21;;;;;;;11.45;6.40;;;;;;;6.77;84.40;91016.44;5055905;28;20020;-88
2021/10/16 09:09:47;;;;;;;10.43;5.95;;;;;;;6.84;83.28;91008.97;5050152;28;20033;-88
2021/10/16 09:12:12;;;;;;;10.77;6.20;;;;;;;6.85;83.86;91015.69;5037853;28;20024;-88
2021/10/16 09:14:46;;;;;;;11.95;6.63;;;;;;;6.90;84.81;91011.13;5020732;28;20025;-87
2021/10/16 09:17:12;;;;;;;12.80;6.05;;;;;;;7.26;83.18;91010.09;5038592;28;20048;-89
2021/10/16 09:19:38;;;;;;;10.95;6.70;;;;;;;7.51;81.36;91012.97;5037746;28;20017;-87
2021/10/16 09:22:07;;;;;;;12.02;6.90;;;;;;;7.53;81.29;91011.63;5021504;28;20028;-89
2021/10/16 09:24:42;;;;;;;14.88;6.97;;;;;;;7.64;80.98;91015.41;5055361;28;20025;-88
2021/10/16 09:27:12;;;;;;;14.20;7.53;;;;;;;7.61;80.46;90997.13;5036503;28;20092;-89
2021/10/16 09:29:42;;;;;;;12.93;8.00;;;;;;;7.82;79.85;91005.78;5036986;28;20032;-87
2021/10/16 09:32:13;;;;;;;18.15;9.90;;;;;;;8.05;79.40;91003.72;5053613;28;20036;-88
2021/10/16 09:34:46;;;;;;;16.13;8.32;;;;;;;8.01;77.92;91008.03;5020457;28;20025;-87
2021/10/16 09:37:20;;;;;;;15.90;9.02;;;;;;;8.15;78.19;91002.63;5037169;28;20056;-88
2021/10/16 09:39:48;;;;;;;18.35;9.93;;;;;;;8.27;78.13;91002.78;5037166;28;20025;-88
2021/10/16 09:42:15;;;;;;;15.80;9.18;;;;;;;8.38;77.84;91003.22;5053329;28;20381;-88
2021/10/16 09:44:44;;;;;;;19.40;10.57;;;;;;;8.61;77.71;91006.31;5036905;28;20021;-88
2021/10/16 09:47:11;;;;;;;15.45;10.00;;;;;;;8.71;75.38;91007.81;5053686;28;20048;-88
2021/10/16 09:49:45;;;;;;;14.10;8.35;;;;;;;8.82;76.68;91006.34;5037006;28;20306;-88
2021/10/16 09:52:16;;;;;;;16.98;8.93;;;;;;;8.94;74.13;91006.47;5019693;28;20111;-87
2021/10/16 09:54:42;;;;;;;13.25;8.20;;;;;;;8.96;71.58;91009.50;5036478;28;20032;-87
2021/10/16 09:57:09;;;;;;;13.48;7.35;;;;;;;8.78;72.64;91006.22;5036846;28;20028;-90
2021/10/16 09:59:37;;;;;;;12.38;7.40;;;;;;;8.83;69.11;91002.69;5036819;28;20025;-88
2021/10/16 10:02:02;;;;;;;11.80;6.93;;;;;;;8.91;69.18;90999.28;5054487;28;20405;-88
2021/10/16 10:04:30;;;;;;;9.68;6.13;;;;;;;9.01;70.28;91003.34;5036993;28;20029;-87
2021/10/16 10:06:58;;;;;;;8.93;5.38;;;;;;;8.96;67.65;91004.28;5036725;28;20039;-87
2021/10/16 10:09:24;;;;;;;9.43;5.50;;;;;;;9.03;67.26;91004.56;5041811;28;20079;-87
2021/10/16 10:11:53;;;;;;;10.18;6.10;;;;;;;9.03;68.43;91006.41;5020535;28;20493;-87
2021/10/16 10:14:19;;;;;;;9.40;5.28;;;;;;;9.19;70.34;90996.22;5046487;28;20108;-88
2021/10/16 10:16:47;;;;;;;7.88;4.53;;;;;;;9.35;68.15;90997.16;5062863;28;20096;-89
2021/10/16 10:19:13;;;;;;;10.50;5.88;;;;;;;9.34;67.99;90999.00;5037101;28;20028;-88
2021/10/16 10:21:39;;;;;;;9.15;5.50;;;;;;;9.42;68.70;91007.03;5052828;28;20029;-88
2021/10/16 10:24:05;;;;;;;10.13;5.57;;;;;;;9.67;71.37;91002.72;5053389;28;20025;-88
2021/10/16 10:26:41;;;;;;;10.10;5.40;;;;;;;9.75;68.98;90996.66;5053198;28;20021;-88
2021/10/16 10:29:13;;;;;;;10.43;5.20;;;;;;;9.79;68.08;91000.16;5020967;28;20025;-87
2021/10/16 10:31:45;;;;;;;10.95;6.65;;;;;;;9.78;67.53;91003.84;5054911;28;20025;-87
2021/10/16 10:34:13;;;;;;;10.55;6.15;;;;;;;9.63;67.36;91004.44;5053517;28;20106;-87
2021/10/16 10:36:53;;;;;;;9.93;6.15;;;;;;;9.69;66.11;91000.56;5038721;28;20025;-87
2021/10/16 10:39:30;;;;;;;11.68;5.45;;;;;;;9.82;68.71;91004.72;5019905;28;20025;-87
2021/10/16 10:41:56;;;;;;;10.93;5.85;;;;;;;10.02;67.20;91005.75;5054323;28;20028;-89
2021/10/16 10:44:40;;;;;;;8.45;5.13;;;;;;;10.05;66.48;91003.28;5052155;28;20025;-87
2021/10/16 10:47:30;;;;;;;6.10;3.47;;;;;;;10.37;66.35;91000.22;5023494;28;20029;-86
2021/10/16 10:50:03;;;;;;;8.35;4.88;;;;;;;10.66;64.54;91000.00;5033127;28;20428;-87
2021/10/16 10:53:14;;;;;;;6.63;3.60;;;;;;;10.61;61.99;90999.47;5033630;28;20100;-87
2021/10/16 10:55:56;;;;;;;9.00;3.50;;;;;;;10.67;61.14;90995.56;5034109;28;20057;-87
2021/10/16 10:58:22;;;;;;;8.80;4.28;;;;;;;10.60;63.66;90990.13;5037279;28;20006;-89
2021/10/16 11:00:48;;;;;;;8.18;4.35;;;;;;;10.62;62.28;90983.50;5048349;28;20497;-87
2021/10/16 11:03:29;;;;;;;4.93;2.60;;;;;;;10.83;61.25;90988.63;5016124;28;20060;-87
2021/10/16 11:05:56;;;;;;;5.93;2.90;;;;;;;10.99;62.03;90989.47;5033725;28;20077;-88
2021/10/16 11:08:21;;;;;;;5.22;3.22;;;;;;;11.27;61.18;90983.53;5015777;28;20026;-88
2021/10/16 11:10:47;;;;;;;3.35;2.10;;;;;;;11.44;58.36;90974.69;5015949;28;20091;-87
